Terminal Aerodrome Forecast
Issued by NWS Sterling, VA

Current Version | Previous Version | Graphics & Text | Print | Product List | Glossary On
Versions: 1 2 3 4 5 6 7 8 9 10 11 12 13 14 15 16 17 18 19 20 21 22 23 24 25 26 27 28
158
FTUS41 KLWX 171722
TAFDCA
TAF
KDCA 171722Z 1718/1818 18007KT P6SM VCTS SCT045CB BKN150
     FM180300 17006KT P6SM SCT045 BKN250
     FM181200 20006KT P6SM BKN015 BKN040
     FM181500 20007KT P6SM SCT040 BKN120=

USA.gov is the U.S. government's official web portal to all federal, state and local government web resources and services.